createdAt,value
2022-12-04T00:01:08.540Z,17.98
2022-12-04T00:03:35.717Z,16.85
2022-12-04T00:06:03.658Z,16.65
2022-12-04T00:08:30.884Z,16.90
2022-12-04T00:10:58.321Z,17.77
2022-12-04T00:13:25.391Z,15.93
2022-12-04T00:15:54.139Z,16.17
2022-12-04T00:18:21.314Z,16.45
2022-12-04T00:20:48.729Z,15.57
2022-12-04T00:23:15.878Z,15.98
2022-12-04T00:25:43.074Z,19.60
2022-12-04T00:28:10.197Z,14.35
2022-12-04T00:30:41.312Z,18.63
2022-12-04T00:33:08.414Z,16.85
2022-12-04T00:35:35.510Z,17.08
2022-12-04T00:38:03.121Z,16.73
2022-12-04T00:40:30.222Z,16.75
2022-12-04T00:42:57.325Z,19.92
2022-12-04T00:45:24.549Z,17.42
2022-12-04T00:47:51.689Z,18.17
2022-12-04T00:50:18.798Z,15.65
2022-12-04T00:52:45.930Z,13.95
2022-12-04T00:55:13.130Z,16.50
2022-12-04T00:57:40.218Z,17.48
2022-12-04T01:00:07.611Z,18.10
2022-12-04T01:02:34.868Z,20.75
2022-12-04T01:05:02.384Z,15.38
2022-12-04T01:07:29.554Z,15.52
2022-12-04T01:09:56.929Z,16.45
2022-12-04T01:12:24.125Z,15.77
2022-12-04T01:14:51.271Z,16.75
2022-12-04T01:17:18.663Z,15.40
2022-12-04T01:19:45.839Z,16.90
2022-12-04T01:22:12.977Z,19.17
2022-12-04T01:24:40.094Z,18.38
2022-12-04T01:27:07.223Z,17.67
2022-12-04T01:29:34.445Z,18.88
2022-12-04T01:32:02.707Z,17.40
2022-12-04T01:34:29.891Z,16.55
2022-12-04T01:36:57.043Z,17.45
2022-12-04T01:39:24.150Z,17.40
2022-12-04T01:41:51.244Z,18.73
2022-12-04T01:44:20.123Z,17.27
2022-12-04T01:46:54.624Z,15.00
2022-12-04T01:49:26.765Z,15.65
2022-12-04T01:51:56.847Z,16.45
2022-12-04T01:54:28.588Z,18.17
2022-12-04T01:56:58.991Z,15.60
2022-12-04T01:59:28.322Z,17.38
2022-12-04T02:02:01.482Z,16.48
2022-12-04T02:04:28.835Z,16.95
2022-12-04T02:06:55.940Z,16.58
2022-12-04T02:09:26.735Z,14.48
2022-12-04T02:11:58.548Z,14.95
2022-12-04T02:14:25.598Z,15.18
2022-12-04T02:17:00.360Z,15.35
2022-12-04T02:19:45.834Z,15.15
2022-12-04T02:22:25.328Z,17.58
2022-12-04T02:25:00.593Z,18.23
2022-12-04T02:27:30.521Z,18.40
2022-12-04T02:30:04.162Z,16.75
2022-12-04T02:32:36.817Z,17.20
2022-12-04T02:35:25.920Z,15.93
2022-12-04T02:38:13.273Z,19.65
2022-12-04T02:40:52.066Z,17.83
2022-12-04T02:43:21.765Z,15.30
2022-12-04T02:46:01.177Z,17.20
2022-12-04T02:48:31.847Z,15.77
2022-12-04T02:51:00.461Z,16.65
2022-12-04T02:53:30.386Z,16.00
2022-12-04T02:55:59.718Z,13.95
2022-12-04T02:58:31.583Z,17.23
2022-12-04T03:01:01.151Z,18.05
2022-12-04T03:03:29.427Z,15.65
2022-12-04T03:06:06.179Z,15.38
2022-12-04T03:08:36.676Z,18.00
2022-12-04T03:11:04.171Z,14.32
2022-12-04T03:13:44.791Z,15.68
2022-12-04T03:16:32.344Z,15.25
2022-12-04T03:19:14.112Z,15.95
2022-12-04T03:21:43.335Z,17.05
2022-12-04T03:24:15.572Z,16.90
2022-12-04T03:26:45.609Z,16.20
2022-12-04T03:29:16.725Z,15.73
2022-12-04T03:31:46.423Z,17.90
2022-12-04T03:34:15.155Z,14.85
2022-12-04T03:36:48.151Z,15.93
2022-12-04T03:39:31.525Z,13.65
2022-12-04T03:41:58.658Z,17.38
2022-12-04T03:44:35.537Z,15.50
2022-12-04T03:47:11.316Z,15.10
2022-12-04T03:49:50.257Z,15.48
2022-12-04T03:52:26.315Z,15.80
2022-12-04T03:55:02.571Z,14.98
2022-12-04T03:57:31.407Z,19.80
2022-12-04T04:00:05.909Z,14.18
2022-12-04T04:02:38.419Z,15.85
2022-12-04T04:05:07.619Z,16.67
2022-12-04T04:07:55.098Z,16.85
2022-12-04T04:10:24.814Z,13.70
2022-12-04T04:13:13.545Z,16.80
2022-12-04T04:16:04.267Z,16.75
2022-12-04T04:18:51.541Z,17.65
2022-12-04T04:21:42.899Z,16.17
2022-12-04T04:24:15.503Z,15.40
2022-12-04T04:26:47.464Z,16.00
2022-12-04T04:29:14.718Z,16.52
2022-12-04T04:31:41.853Z,16.88
2022-12-04T04:34:11.737Z,18.17
2022-12-04T04:36:49.933Z,15.57
2022-12-04T04:39:21.039Z,15.85
2022-12-04T04:41:55.049Z,17.67
2022-12-04T04:44:45.325Z,13.18
2022-12-04T04:47:16.410Z,15.80
2022-12-04T04:49:45.034Z,17.63
2022-12-04T04:52:12.153Z,15.77
2022-12-04T04:54:39.628Z,14.98
2022-12-04T04:57:06.725Z,16.33
2022-12-04T04:59:34.655Z,14.43
2022-12-04T05:02:01.837Z,15.68
2022-12-04T05:04:28.974Z,16.23
2022-12-04T05:06:56.096Z,16.90
2022-12-04T05:09:23.182Z,14.38
2022-12-04T05:11:50.279Z,17.13
2022-12-04T05:14:17.406Z,14.20
2022-12-04T05:16:44.594Z,15.10
2022-12-04T05:19:30.187Z,17.02
2022-12-04T05:21:57.541Z,16.33
2022-12-04T05:24:24.648Z,16.20
2022-12-04T05:26:51.730Z,18.05
2022-12-04T05:29:18.814Z,16.40
2022-12-04T05:31:46.000Z,15.25
2022-12-04T05:34:13.151Z,18.25
2022-12-04T05:36:40.293Z,17.80
2022-12-04T05:39:07.388Z,15.82
2022-12-04T05:41:34.489Z,13.60
2022-12-04T05:44:01.702Z,15.85
2022-12-04T05:46:28.870Z,15.80
2022-12-04T05:48:55.981Z,14.27
2022-12-04T05:51:23.066Z,18.15
2022-12-04T05:53:52.053Z,16.15
2022-12-04T05:58:46.107Z,15.32
2022-12-04T06:01:16.211Z,15.65
2022-12-04T06:03:43.308Z,14.32
2022-12-04T06:06:19.496Z,19.67
2022-12-04T06:08:48.976Z,16.73
2022-12-04T06:11:20.663Z,15.90
2022-12-04T06:13:48.035Z,15.82
2022-12-04T06:16:15.451Z,15.18
2022-12-04T06:18:42.862Z,16.80
2022-12-04T06:21:10.443Z,16.38
2022-12-04T06:23:37.858Z,17.50
2022-12-04T06:26:07.295Z,15.85
2022-12-04T06:28:34.913Z,16.15
2022-12-04T06:31:03.278Z,14.38
2022-12-04T06:33:30.421Z,17.70
2022-12-04T06:36:01.056Z,15.68
2022-12-04T06:38:28.352Z,16.02
2022-12-04T06:40:55.539Z,16.08
2022-12-04T06:43:22.797Z,17.08
2022-12-04T06:45:50.036Z,16.23
2022-12-04T06:48:17.191Z,16.90
2022-12-04T06:50:44.260Z,14.65
2022-12-04T06:53:11.357Z,17.85
2022-12-04T06:55:38.477Z,15.60
2022-12-04T06:58:05.558Z,21.45
2022-12-04T07:00:32.685Z,19.77
2022-12-04T07:02:59.810Z,16.60
2022-12-04T07:05:27.783Z,15.60
2022-12-04T07:07:54.947Z,18.27
2022-12-04T07:10:22.080Z,17.73
2022-12-04T07:12:49.162Z,14.88
2022-12-04T07:15:16.331Z,14.80
2022-12-04T07:17:43.421Z,18.80
2022-12-04T07:20:10.821Z,17.20
2022-12-04T07:22:37.972Z,15.20
2022-12-04T07:25:05.327Z,15.13
2022-12-04T07:27:32.433Z,16.88
2022-12-04T07:29:59.688Z,18.25
2022-12-04T07:32:26.797Z,15.85
2022-12-04T07:34:53.853Z,14.95
2022-12-04T07:37:20.931Z,17.85
2022-12-04T07:39:48.024Z,15.43
2022-12-04T07:42:18.403Z,16.73
2022-12-04T07:44:48.195Z,17.25
2022-12-04T07:47:15.497Z,17.15
2022-12-04T07:49:42.641Z,14.15
2022-12-04T07:52:09.775Z,13.95
2022-12-04T07:54:37.173Z,23.98
2022-12-04T07:57:04.356Z,23.73
2022-12-04T07:59:31.428Z,25.85
2022-12-04T08:01:58.656Z,20.25
2022-12-04T08:04:25.863Z,19.08
2022-12-04T08:06:52.989Z,21.15
2022-12-04T08:09:20.102Z,16.08
2022-12-04T08:11:47.184Z,19.45
2022-12-04T08:14:14.874Z,18.63
2022-12-04T08:16:46.107Z,18.13
2022-12-04T08:19:16.954Z,16.10
2022-12-04T08:21:44.905Z,20.30
2022-12-04T08:24:12.087Z,16.08
2022-12-04T08:26:39.219Z,15.02
2022-12-04T08:29:06.736Z,18.25
2022-12-04T08:31:34.816Z,16.83
2022-12-04T08:34:03.235Z,14.88
2022-12-04T08:36:30.444Z,14.38
2022-12-04T08:38:57.703Z,18.13
2022-12-04T08:41:26.113Z,15.00
2022-12-04T08:43:57.951Z,15.93
2022-12-04T08:46:26.448Z,16.10
2022-12-04T08:48:54.561Z,17.90
2022-12-04T08:51:24.389Z,18.05
2022-12-04T08:54:09.953Z,14.77
2022-12-04T08:56:37.718Z,16.70
2022-12-04T08:59:05.136Z,16.98
2022-12-04T09:01:32.480Z,14.95
2022-12-04T09:03:59.836Z,15.63
2022-12-04T09:06:27.142Z,15.20
2022-12-04T09:08:55.344Z,14.25
2022-12-04T09:11:23.253Z,15.02
2022-12-04T09:13:50.413Z,14.20
2022-12-04T09:16:19.395Z,14.80
2022-12-04T09:21:14.816Z,13.00
2022-12-04T09:23:42.386Z,14.80
2022-12-04T09:26:21.811Z,13.45
2022-12-04T09:28:52.373Z,15.75
2022-12-04T09:31:20.001Z,15.27
2022-12-04T09:33:47.269Z,14.68
2022-12-04T09:36:18.038Z,16.52
2022-12-04T09:38:46.198Z,14.23
2022-12-04T09:41:22.652Z,13.20
2022-12-04T09:44:01.429Z,14.15
2022-12-04T09:46:50.945Z,19.58
2022-12-04T09:49:22.117Z,15.55
2022-12-04T09:51:51.739Z,13.57
2022-12-04T09:54:20.415Z,14.43
2022-12-04T09:56:53.198Z,18.13
2022-12-04T09:59:22.467Z,18.88
2022-12-04T10:01:58.105Z,14.23
2022-12-04T10:04:25.564Z,13.38
2022-12-04T10:07:07.930Z,15.25
2022-12-04T10:09:55.021Z,14.05
2022-12-04T10:12:35.033Z,14.07
2022-12-04T10:15:13.692Z,12.02
2022-12-04T10:17:44.050Z,13.88
2022-12-04T10:20:29.812Z,15.10
2022-12-04T10:23:13.508Z,12.45
2022-12-04T10:25:41.766Z,14.68
2022-12-04T10:28:11.765Z,12.55
2022-12-04T10:30:42.237Z,14.43
2022-12-04T10:33:16.985Z,12.70
2022-12-04T10:35:45.593Z,15.48
2022-12-04T10:38:31.638Z,13.52
2022-12-04T10:41:01.089Z,11.82
2022-12-04T10:43:43.064Z,11.20
2022-12-04T10:46:14.820Z,14.63
2022-12-04T10:48:42.653Z,13.23
2022-12-04T10:51:29.464Z,12.55
2022-12-04T10:53:58.524Z,12.52
2022-12-04T10:56:26.375Z,12.63
2022-12-04T10:59:04.890Z,12.63
2022-12-04T11:01:33.380Z,12.15
2022-12-04T11:04:02.715Z,14.48
2022-12-04T11:06:30.280Z,13.88
2022-12-04T11:08:58.115Z,13.60
2022-12-04T11:11:27.882Z,12.85
2022-12-04T11:14:05.253Z,15.55
2022-12-04T11:16:39.989Z,10.73
2022-12-04T11:19:24.669Z,11.13
2022-12-04T11:21:53.158Z,13.82
2022-12-04T11:24:22.725Z,11.25
2022-12-04T11:26:52.318Z,12.13
2022-12-04T11:29:20.437Z,10.45
2022-12-04T11:31:51.614Z,11.07
2022-12-04T11:34:20.865Z,12.80
2022-12-04T11:36:55.301Z,13.40
2022-12-04T11:39:32.241Z,12.27
2022-12-04T11:42:07.117Z,11.20
2022-12-04T11:44:36.212Z,11.85
2022-12-04T11:47:05.015Z,13.95
2022-12-04T11:49:32.929Z,11.68
2022-12-04T11:52:09.288Z,11.43
2022-12-04T11:54:42.558Z,11.20
2022-12-04T11:57:19.275Z,11.38
2022-12-04T11:59:54.024Z,11.65
2022-12-04T12:02:30.572Z,11.18
2022-12-04T12:04:57.792Z,10.93
2022-12-04T12:07:38.931Z,10.98
2022-12-04T12:10:23.681Z,12.27
2022-12-04T12:12:50.779Z,9.10
2022-12-04T12:15:30.300Z,11.35
2022-12-04T12:17:57.396Z,12.18
2022-12-04T12:20:27.200Z,12.05
2022-12-04T12:23:20.603Z,11.13
2022-12-04T12:25:55.979Z,11.52
2022-12-04T12:28:41.724Z,11.07
2022-12-04T12:31:18.228Z,10.68
2022-12-04T12:34:01.106Z,11.43
2022-12-04T12:36:31.523Z,9.52
2022-12-04T12:39:07.924Z,13.32
2022-12-04T12:41:40.031Z,11.35
2022-12-04T12:44:11.266Z,11.85
2022-12-04T12:46:44.083Z,9.43
2022-12-04T12:49:31.455Z,11.02
2022-12-04T12:54:37.720Z,10.93
2022-12-04T12:57:22.946Z,13.20
2022-12-04T12:59:52.870Z,9.88
2022-12-04T13:02:41.695Z,10.52
2022-12-04T13:05:10.918Z,16.40
2022-12-04T13:07:50.882Z,9.50
2022-12-04T13:10:33.624Z,8.35
2022-12-04T13:13:02.992Z,11.55
2022-12-04T13:15:39.761Z,11.32
2022-12-04T13:18:08.615Z,8.60
2022-12-04T13:20:39.976Z,8.13
2022-12-04T13:23:19.246Z,8.27
2022-12-04T13:26:19.006Z,9.32
2022-12-04T13:31:13.171Z,8.27
2022-12-04T13:33:58.818Z,8.98
2022-12-04T13:36:25.915Z,10.65
2022-12-04T13:39:05.055Z,11.50
2022-12-04T13:41:36.070Z,8.43
2022-12-04T13:44:07.222Z,9.18
2022-12-04T13:46:42.149Z,9.93
2022-12-04T13:49:10.880Z,9.73
2022-12-04T13:51:39.791Z,9.27
2022-12-04T13:54:12.953Z,9.45
2022-12-04T13:56:40.944Z,9.32
2022-12-04T13:59:23.269Z,9.85
2022-12-04T14:01:52.595Z,8.68
2022-12-04T14:04:43.026Z,8.40
2022-12-04T14:07:23.406Z,9.43
2022-12-04T14:09:53.397Z,9.40
2022-12-04T14:12:25.349Z,9.30
2022-12-04T14:14:54.830Z,8.40
2022-12-04T14:17:27.663Z,9.40
2022-12-04T14:20:07.578Z,8.02
2022-12-04T14:22:35.267Z,8.07
2022-12-04T14:25:08.425Z,8.88
2022-12-04T14:27:43.940Z,7.10
2022-12-04T14:30:16.875Z,7.40
2022-12-04T14:32:44.395Z,8.30
2022-12-04T14:35:29.943Z,9.05
2022-12-04T14:38:02.250Z,7.70
2022-12-04T14:40:31.680Z,9.43
2022-12-04T14:42:59.421Z,9.73
2022-12-04T14:45:47.363Z,9.60
2022-12-04T14:48:32.780Z,10.52
2022-12-04T14:51:11.711Z,9.30
2022-12-04T14:53:44.372Z,8.88
2022-12-04T14:56:29.984Z,9.80
2022-12-04T14:58:58.354Z,8.93
2022-12-04T15:01:29.756Z,8.48
2022-12-04T15:03:59.027Z,9.80
2022-12-04T15:09:15.319Z,8.63
2022-12-04T15:12:21.039Z,8.30
2022-12-04T15:14:49.234Z,8.55
2022-12-04T15:17:18.888Z,9.43
2022-12-04T15:19:46.126Z,7.22
2022-12-04T15:22:23.232Z,7.03
2022-12-04T15:24:51.061Z,9.02
2022-12-04T15:27:20.067Z,11.48
2022-12-04T15:32:17.641Z,8.68
2022-12-04T15:34:49.893Z,7.70
2022-12-04T15:37:20.620Z,7.07
2022-12-04T15:39:49.903Z,7.88
2022-12-04T15:42:26.026Z,7.85
2022-12-04T15:44:55.095Z,8.02
2022-12-04T15:47:27.080Z,7.97
2022-12-04T15:49:57.351Z,6.72
2022-12-04T15:52:28.269Z,7.85
2022-12-04T15:55:00.809Z,9.43
2022-12-04T15:57:28.053Z,9.43
2022-12-04T15:59:55.979Z,8.02
2022-12-04T16:02:42.985Z,8.50
2022-12-04T16:05:13.419Z,8.98
2022-12-04T16:07:48.921Z,9.80
2022-12-04T16:10:26.843Z,7.35
2022-12-04T16:12:55.466Z,6.85
2022-12-04T16:15:28.252Z,9.00
2022-12-04T16:17:56.099Z,6.43
2022-12-04T16:20:24.058Z,6.95
2022-12-04T16:23:00.278Z,7.95
2022-12-04T16:25:31.266Z,7.22
2022-12-04T16:28:03.410Z,6.63
2022-12-04T16:30:32.038Z,7.07
2022-12-04T16:32:59.354Z,8.30
2022-12-04T16:35:27.281Z,8.57
2022-12-04T16:37:57.916Z,9.00
2022-12-04T16:40:27.114Z,7.50
2022-12-04T16:42:54.691Z,7.35
2022-12-04T16:45:25.314Z,7.47
2022-12-04T16:47:54.163Z,8.48
2022-12-04T16:50:24.447Z,6.40
2022-12-04T16:52:52.686Z,6.40
2022-12-04T16:55:42.558Z,7.65
2022-12-04T16:58:10.396Z,6.93
2022-12-04T17:00:39.697Z,6.47
2022-12-04T17:03:07.179Z,7.20
2022-12-04T17:05:36.340Z,7.70
2022-12-04T17:08:04.024Z,6.50
2022-12-04T17:10:32.014Z,6.57
2022-12-04T17:13:03.762Z,8.10
2022-12-04T17:15:34.143Z,7.40
2022-12-04T17:18:09.072Z,10.30
2022-12-04T17:20:42.489Z,6.78
2022-12-04T17:23:13.719Z,5.72
2022-12-04T17:25:41.702Z,9.60
2022-12-04T17:28:12.239Z,8.98
2022-12-04T17:30:46.125Z,10.20
2022-12-04T17:33:14.229Z,7.65
2022-12-04T17:35:43.188Z,8.65
2022-12-04T17:38:13.778Z,8.88
2022-12-04T17:40:44.297Z,10.55
2022-12-04T17:43:11.856Z,7.10
2022-12-04T17:45:48.028Z,9.88
2022-12-04T17:48:15.632Z,8.55
2022-12-04T17:50:48.929Z,7.03
2022-12-04T17:53:17.694Z,7.97
2022-12-04T17:58:18.930Z,9.30
2022-12-04T18:00:49.520Z,10.65
2022-12-04T18:03:22.571Z,11.00
2022-12-04T18:06:09.538Z,10.93
2022-12-04T18:08:37.543Z,12.05
2022-12-04T18:11:09.229Z,12.88
2022-12-04T18:13:36.851Z,11.05
2022-12-04T18:16:05.942Z,10.73
2022-12-04T18:18:33.558Z,11.82
2022-12-04T18:21:05.692Z,12.35
2022-12-04T18:23:33.321Z,12.77
2022-12-04T18:26:01.880Z,9.43
2022-12-04T18:28:30.432Z,11.32
2022-12-04T18:31:06.998Z,10.27
2022-12-04T18:33:43.081Z,8.93
2022-12-04T18:36:18.324Z,8.95
2022-12-04T18:38:46.163Z,11.65
2022-12-04T18:41:18.139Z,9.70
2022-12-04T18:43:48.657Z,8.55
2022-12-04T18:46:17.217Z,10.15
2022-12-04T18:48:45.210Z,9.45
2022-12-04T18:51:31.259Z,10.35
2022-12-04T18:54:01.494Z,9.30
2022-12-04T18:56:31.884Z,11.20
2022-12-04T18:59:00.539Z,8.32
2022-12-04T19:01:34.112Z,12.15
2022-12-04T19:04:04.234Z,9.70
2022-12-04T19:06:41.929Z,10.85
2022-12-04T19:09:20.419Z,10.60
2022-12-04T19:11:47.803Z,9.07
2022-12-04T19:14:22.794Z,12.93
2022-12-04T19:16:50.751Z,10.85
2022-12-04T19:19:18.362Z,9.77
2022-12-04T19:21:45.595Z,10.55
2022-12-04T19:24:13.687Z,10.85
2022-12-04T19:26:41.196Z,11.40
2022-12-04T19:29:08.601Z,10.50
2022-12-04T19:31:38.034Z,11.32
2022-12-04T19:34:06.125Z,13.13
2022-12-04T19:36:34.018Z,14.10
2022-12-04T19:39:01.556Z,10.80
2022-12-04T19:41:37.243Z,11.02
2022-12-04T19:44:20.055Z,10.07
2022-12-04T19:46:51.661Z,9.57
2022-12-04T19:49:18.864Z,10.25
2022-12-04T19:51:47.668Z,9.95
2022-12-04T19:54:15.157Z,10.13
2022-12-04T19:56:45.847Z,9.90
2022-12-04T19:59:13.380Z,10.20
2022-12-04T20:01:40.768Z,9.27
2022-12-04T20:04:09.153Z,9.60
2022-12-04T20:06:41.244Z,10.68
2022-12-04T20:09:09.756Z,13.07
2022-12-04T20:11:36.930Z,10.63
2022-12-04T20:14:05.392Z,11.18
2022-12-04T20:16:35.622Z,10.07
2022-12-04T20:19:03.589Z,11.85
2022-12-04T20:21:32.395Z,9.85
2022-12-04T20:24:03.065Z,10.48
2022-12-04T20:26:32.527Z,10.05
2022-12-04T20:29:00.635Z,10.23
2022-12-04T20:31:29.144Z,11.10
2022-12-04T20:33:56.881Z,9.77
2022-12-04T20:36:25.502Z,10.10
2022-12-04T20:38:55.224Z,11.63
2022-12-04T20:41:22.446Z,12.88
2022-12-04T20:43:49.965Z,11.85
2022-12-04T20:46:18.574Z,10.90
2022-12-04T20:48:49.316Z,12.30
2022-12-04T20:51:19.474Z,10.68
2022-12-04T20:53:47.398Z,9.15
2022-12-04T20:56:14.963Z,11.07
2022-12-04T20:58:42.215Z,10.85
2022-12-04T21:01:10.237Z,11.60
2022-12-04T21:03:37.652Z,11.00
2022-12-04T21:06:05.128Z,9.52
2022-12-04T21:08:50.883Z,11.50
2022-12-04T21:11:17.969Z,10.13
2022-12-04T21:14:03.741Z,10.90
2022-12-04T21:16:30.932Z,13.85
2022-12-04T21:18:58.069Z,12.98
2022-12-04T21:21:26.629Z,12.65
2022-12-04T21:23:53.984Z,12.18
2022-12-04T21:26:22.095Z,11.75
2022-12-04T21:28:49.163Z,12.55
2022-12-04T21:31:16.327Z,12.80
2022-12-04T21:33:43.488Z,11.55
2022-12-04T21:36:10.748Z,9.95
2022-12-04T21:38:39.928Z,9.20
2022-12-04T21:41:07.716Z,9.88
2022-12-04T21:43:35.405Z,13.85
2022-12-04T21:46:09.452Z,12.50
2022-12-04T21:48:37.156Z,9.68
2022-12-04T21:51:16.832Z,10.98
2022-12-04T21:53:54.719Z,12.70
2022-12-04T21:56:25.282Z,10.45
2022-12-04T21:58:52.777Z,9.45
2022-12-04T22:01:21.263Z,11.20
2022-12-04T22:03:48.829Z,13.73
2022-12-04T22:06:15.942Z,11.50
2022-12-04T22:08:43.122Z,11.25
2022-12-04T22:11:11.159Z,10.48
2022-12-04T22:13:39.088Z,10.25
2022-12-04T22:16:07.702Z,13.75
2022-12-04T22:18:35.327Z,11.73
2022-12-04T22:21:06.754Z,8.38
2022-12-04T22:23:34.091Z,9.38
2022-12-04T22:26:12.073Z,10.40
2022-12-04T22:28:39.802Z,10.98
2022-12-04T22:31:09.702Z,10.05
2022-12-04T22:33:38.172Z,8.38
2022-12-04T22:36:07.054Z,10.30
2022-12-04T22:38:42.473Z,9.13
2022-12-04T22:41:20.490Z,10.07
2022-12-04T22:43:47.701Z,11.25
2022-12-04T22:46:14.995Z,9.88
2022-12-04T22:48:42.636Z,9.20
2022-12-04T22:51:17.045Z,10.77
2022-12-04T22:53:45.733Z,9.57
2022-12-04T22:56:15.625Z,9.60
2022-12-04T22:58:44.163Z,9.90
2022-12-04T23:01:11.312Z,9.75
2022-12-04T23:03:38.435Z,8.52
2022-12-04T23:06:05.749Z,8.63
2022-12-04T23:08:32.917Z,9.23
2022-12-04T23:11:03.507Z,12.73
2022-12-04T23:13:30.612Z,9.98
2022-12-04T23:16:01.522Z,10.20
2022-12-04T23:18:30.928Z,9.55
2022-12-04T23:21:08.566Z,9.98
2022-12-04T23:23:36.671Z,9.88
2022-12-04T23:26:07.918Z,11.40
2022-12-04T23:28:35.341Z,9.93
2022-12-04T23:31:02.819Z,9.48
2022-12-04T23:33:30.278Z,10.25
2022-12-04T23:35:58.284Z,10.95
2022-12-04T23:38:26.057Z,9.57
2022-12-04T23:41:01.156Z,9.98
2022-12-04T23:45:55.313Z,9.35
2022-12-04T23:48:22.406Z,10.38
2022-12-04T23:50:49.498Z,9.15
2022-12-04T23:53:16.638Z,10.25
2022-12-04T23:55:43.917Z,9.70
2022-12-04T23:58:11.012Z,9.43
